Airfield :
LOGIN :

Register | Disclaimer

   EN    FR    IT 

 










Legend :    VFR   Marginal VFR   IFR   Intensive IFR   Very Intensive IFR
Visi :
Ceiling :
>= 8 km
>= 3000ft
5 to 8 km
1000 to 3000 ft
1500m to 5 km
500 to 1000 ft
800 to 1500m
200 to 500 ft
< 800m
< 200 ft
Symbols :   Thunderstorms  Fog  Heavy snow  Heavy precipitations  Wind > 20 kt
SIGMETs :     Misc.  Thunderstorms  Icing  Turbulence  Mountain Waves  Volcanic Ashes






- Airport Elevation : 359 ft
- IATA code : BVA


LFOB - Beauvais

CURRENT METAR :
  • 251100Z AUTO 13005KT 9999 BKN010 OVC030 09/07 Q1016 NOSIG

EXPIRED METARs :
  • 251030Z AUTO 13005KT 9999 OVC008 08/07 Q1016 NOSIG
  • 251000Z AUTO 14005KT 9999 OVC008 08/07 Q1016 NOSIG
  • 250930Z AUTO 13004KT 9999 OVC007 07/07 Q1016 NOSIG
  • 250900Z AUTO 19005KT 9999 OVC006 07/07 Q1016 NOSIG
  • 250830Z AUTO 17005KT 130V210 9999 OVC007 07/06 Q1015 NOSIG

TAF TAF LFOB
Valid from the 25 at 06:00 until the 26 at 06:00 UTC


250500Z 2506/2606 15007KT 8000 NSC
BECMG 2506/2509 OVC007
BECMG 2516/2519 NSC
BECMG 2521/2523 3000 BR
BECMG 2523/2601 0400 FG VV///
ATIS : +33 3 44 11 49 28



MET'MAP, your aeronautical weather chart ! - Copyright ORBIFLY December 2007 - Disclaimer

ORBIFLY MET'MAP TEAM :

Programming & Development : Alexandra Zaïnal
Concept & original design : Baudouin d'Aumeries
Assistance for programming : Marc-Olivier Méhu
Technical & hardware support : Manuel Goepfert

Contact : metmap@orbifly.com




SOURCES & CREDITS :

   NOAA